Terminal Aerodrome Forecast
Issued by NWS

Home | Current Version | Previous Version | Text Only | Print | Product List | Glossary Off
Versions: 1 2 3 4 5 6 7 8 9 10 11 12 13 14 15 16 17 18 19 20 21 22 23 24 25 26

000
FTUS43 KGRB 201721
TAFRHI
TAF
KRHI 201721Z 2018/2118 26009KT P6SM SCT140 BKN200
     FM210100 26003KT P6SM FEW140 BKN200
     FM210900 26003KT P6SM FEW140 SCT200
     FM211500 29009KT P6SM SCT060 BKN200=

USA.gov is the U.S. government's official web portal to all federal, state and local government web resources and services.